Pagrindinis puslapis
METAR-TAF:

METAR-TAF

Oro uostai :

Mikelis, Suomija

platuma: 61-44N, ilguma: 027-18E, Aukštis: 138 m

Dabartinis oras

Ataskaita buvo paskelbta 20 minutes, ne 07:20 UTC
Vėjas 8 kt iš Rytų/Pietryčių, svyruoja nuo Rytų ir Pietų/Pietryčių
Temperatūra 1°C
Drėgmė 93%
Slėgis 998 hPa
Matomumas: 8000 m
Apsiniaukę ne aukštis 600 ft
lietus

METAR: EFMI 150720Z AUTO 11008KT 090V150 8000 -RA OVC006 01/M00 Q0998

Laikas: 09:40 (07:40 UTC)


TAF: trūkstamas

Orai ataskaitas ir orų prognozės (METAR, TAF).

turimą stotys yra geltonos ir raudonos taškus žemėlapyje.

Perkelti pele per norėdami pamatyti stoties vardą.

Tada spustelėkite, norėdami matyti oro stebėjimo ir prognozės.

Norėdami pakeisti žemėlapį: spustelėkite ant žalios mygtukų su juodo kryžiaus žemyn,; žalią mygtuką su brūkšneliu, jei norite nutolinti; arba žalių rodyklių gretimoms žemėlapius.


METAR-TAF: